AJP415 DNMM-DNAA
Flight info
| Callsign | AJP415 |
|---|---|
| Flight time | 0h 26m |
| Altitude | 41000 |
| Route | IBA1Q IBA UR778 KELIG UW951 MESES MESES1R |
| Aircraft | PC24/M-SBDGIRWY/LB2 |
Departure
| Time | 2026-04-20 20:25 |
|---|---|
| Airport | Murtala Muhammed International Airport (DNMM) |
Arrival
| Time | 2026-04-20 20:52 |
|---|---|
| Airport | Nnamdi Azikiwe International Airport (DNAA) |
| Time | Latitude | Longitude | Altitude | Speed | Heading |
|---|---|---|---|---|---|
| 2026-04-20 20:16 | 6.59171 | 3.33168 | 125 ft | 0 kts | 326° |
| 2026-04-20 20:21 | 6.59185 | 3.33158 | 125 ft | 4 kts | 323° |
| 2026-04-20 20:21 | 6.59194 | 3.33137 | 122 ft | 4 kts | 276° |
| 2026-04-20 20:22 | 6.59187 | 3.33111 | 124 ft | 4 kts | 243° |
| 2026-04-20 20:22 | 6.59174 | 3.33085 | 121 ft | 4 kts | 244° |
| 2026-04-20 20:22 | 6.59168 | 3.33055 | 124 ft | 5 kts | 278° |
| 2026-04-20 20:22 | 6.59195 | 3.33038 | 124 ft | 7 kts | 0° |
| 2026-04-20 20:23 | 6.59290 | 3.33040 | 126 ft | 19 kts | 359° |
| 2026-04-20 20:23 | 6.59429 | 3.33037 | 127 ft | 19 kts | 357° |
| 2026-04-20 20:23 | 6.59556 | 3.33035 | 128 ft | 18 kts | 359° |
| 2026-04-20 20:23 | 6.59660 | 3.33008 | 127 ft | 14 kts | 290° |
| 2026-04-20 20:24 | 6.59663 | 3.32922 | 132 ft | 11 kts | 274° |
| 2026-04-20 20:24 | 6.59644 | 3.32882 | 133 ft | 4 kts | 171° |
| 2026-04-20 20:24 | 6.59400 | 3.32888 | 127 ft | 82 kts | 179° |
| 2026-04-20 20:24 | 6.58579 | 3.32897 | 137 ft | 149 kts | 180° |
| 2026-04-20 20:25 | 6.57451 | 3.32882 | 584 ft | 167 kts | 188° |
| 2026-04-20 20:25 | 6.56662 | 3.32217 | 1697 ft | 155 kts | 254° |
| 2026-04-20 20:25 | 6.56999 | 3.31224 | 2805 ft | 162 kts | 319° |
| 2026-04-20 20:25 | 6.58117 | 3.30944 | 3563 ft | 184 kts | 15° |
| 2026-04-20 20:26 | 6.59253 | 3.31620 | 4490 ft | 200 kts | 37° |
| 2026-04-20 20:26 | 6.60516 | 3.32327 | 5507 ft | 211 kts | 25° |
| 2026-04-20 20:26 | 6.61911 | 3.32770 | 6714 ft | 214 kts | 15° |
| 2026-04-20 20:26 | 6.64510 | 3.32866 | 8603 ft | 226 kts | 4° |
| 2026-04-20 20:27 | 6.67685 | 3.32778 | 10102 ft | 242 kts | 6° |
| 2026-04-20 20:27 | 6.70828 | 3.33374 | 11995 ft | 229 kts | 31° |
| 2026-04-20 20:27 | 6.73377 | 3.35312 | 13373 ft | 219 kts | 48° |
| 2026-04-20 20:27 | 6.75715 | 3.37643 | 14380 ft | 238 kts | 48° |
| 2026-04-20 20:28 | 6.78124 | 3.40023 | 15763 ft | 248 kts | 47° |
| 2026-04-20 20:28 | 6.80596 | 3.42468 | 17144 ft | 256 kts | 47° |
| 2026-04-20 20:28 | 6.83197 | 3.45042 | 18446 ft | 265 kts | 47° |
| 2026-04-20 20:28 | 6.85817 | 3.47633 | 19624 ft | 270 kts | 47° |
| 2026-04-20 20:29 | 6.88530 | 3.50317 | 20768 ft | 276 kts | 47° |
| 2026-04-20 20:29 | 6.91308 | 3.53067 | 21899 ft | 282 kts | 47° |
| 2026-04-20 20:29 | 6.94140 | 3.55870 | 22995 ft | 288 kts | 47° |
| 2026-04-20 20:29 | 6.96990 | 3.58692 | 23931 ft | 294 kts | 47° |
| 2026-04-20 20:30 | 6.99951 | 3.61624 | 24812 ft | 299 kts | 46° |
| 2026-04-20 20:30 | 7.02913 | 3.64558 | 25665 ft | 304 kts | 45° |
| 2026-04-20 20:30 | 7.05988 | 3.67602 | 26551 ft | 309 kts | 45° |
| 2026-04-20 20:30 | 7.09062 | 3.70648 | 27399 ft | 316 kts | 44° |
| 2026-04-20 20:31 | 7.12233 | 3.73790 | 28294 ft | 321 kts | 43° |
| 2026-04-20 20:31 | 7.15449 | 3.76977 | 28851 ft | 334 kts | 43° |
| 2026-04-20 20:31 | 7.22154 | 3.83624 | 28863 ft | 358 kts | 43° |
| 2026-04-20 20:32 | 7.25819 | 3.87260 | 28866 ft | 385 kts | 43° |
| 2026-04-20 20:32 | 7.29772 | 3.91183 | 28867 ft | 407 kts | 43° |
| 2026-04-20 20:32 | 7.33849 | 3.95227 | 28865 ft | 423 kts | 44° |
| 2026-04-20 20:32 | 7.37975 | 3.99505 | 28849 ft | 434 kts | 52° |
| 2026-04-20 20:33 | 7.45576 | 4.09154 | 28867 ft | 445 kts | 50° |
| 2026-04-20 20:33 | 7.53743 | 4.18626 | 28867 ft | 452 kts | 49° |
| 2026-04-20 20:34 | 7.62051 | 4.28288 | 28864 ft | 455 kts | 49° |
| 2026-04-20 20:34 | 7.70321 | 4.37912 | 28868 ft | 456 kts | 48° |
| 2026-04-20 20:35 | 7.77505 | 4.48357 | 28867 ft | 457 kts | 61° |
| 2026-04-20 20:35 | 7.83610 | 4.59334 | 28861 ft | 447 kts | 60° |
| 2026-04-20 20:36 | 7.89581 | 4.70062 | 28854 ft | 415 kts | 60° |
| 2026-04-20 20:36 | 7.92434 | 4.75189 | 28861 ft | 429 kts | 60° |
| 2026-04-20 20:36 | 7.95408 | 4.80529 | 28868 ft | 440 kts | 60° |
| 2026-04-20 20:37 | 8.01490 | 4.91459 | 28870 ft | 451 kts | 60° |
| 2026-04-20 20:37 | 8.09160 | 5.05250 | 28856 ft | 452 kts | 60° |
| 2026-04-20 20:38 | 8.21532 | 5.27516 | 28843 ft | 454 kts | 60° |
| 2026-04-20 20:38 | 8.33837 | 5.49687 | 28825 ft | 454 kts | 60° |
| 2026-04-20 20:39 | 8.46174 | 5.71953 | 28805 ft | 454 kts | 60° |
| 2026-04-20 20:39 | 8.58447 | 5.94160 | 28779 ft | 454 kts | 60° |
| 2026-04-20 20:40 | 8.70769 | 6.16553 | 28771 ft | 454 kts | 60° |
| 2026-04-20 20:40 | 8.83037 | 6.38793 | 28771 ft | 455 kts | 60° |
| 2026-04-20 20:41 | 8.93694 | 6.61877 | 28783 ft | 455 kts | 67° |
| 2026-04-20 20:41 | 9.03215 | 6.84873 | 26495 ft | 425 kts | 68° |
| 2026-04-20 20:42 | 9.07653 | 6.95608 | 24308 ft | 400 kts | 68° |
| 2026-04-20 20:42 | 9.11760 | 7.05553 | 22068 ft | 369 kts | 69° |
| 2026-04-20 20:42 | 9.15601 | 7.14866 | 19738 ft | 351 kts | 69° |
| 2026-04-20 20:42 | 9.19218 | 7.23640 | 17545 ft | 330 kts | 69° |
| 2026-04-20 20:43 | 9.21768 | 7.30664 | 15562 ft | 307 kts | 88° |
| 2026-04-20 20:43 | 9.23174 | 7.34453 | 14424 ft | 303 kts | 43° |
| 2026-04-20 20:43 | 9.26727 | 7.36644 | 13330 ft | 293 kts | 38° |
| 2026-04-20 20:43 | 9.29979 | 7.39052 | 12138 ft | 285 kts | 40° |
| 2026-04-20 20:44 | 9.31496 | 7.42459 | 10959 ft | 280 kts | 96° |
| 2026-04-20 20:44 | 9.29472 | 7.45591 | 9830 ft | 277 kts | 147° |
| 2026-04-20 20:44 | 9.25695 | 7.46296 | 8655 ft | 273 kts | 171° |
| 2026-04-20 20:44 | 9.24276 | 7.46248 | 8206 ft | 274 kts | 188° |
| 2026-04-20 20:45 | 9.23387 | 7.45923 | 7910 ft | 276 kts | 206° |
| 2026-04-20 20:45 | 9.22259 | 7.44968 | 7379 ft | 279 kts | 229° |
| 2026-04-20 20:45 | 9.21139 | 7.43348 | 6593 ft | 278 kts | 237° |
| 2026-04-20 20:45 | 9.20170 | 7.41762 | 5687 ft | 256 kts | 238° |
| 2026-04-20 20:46 | 9.19259 | 7.40265 | 4986 ft | 238 kts | 235° |
| 2026-04-20 20:46 | 9.18284 | 7.38982 | 4784 ft | 227 kts | 226° |
| 2026-04-20 20:46 | 9.17099 | 7.37957 | 4496 ft | 221 kts | 214° |
| 2026-04-20 20:46 | 9.15850 | 7.37090 | 4217 ft | 218 kts | 213° |
| 2026-04-20 20:47 | 9.14680 | 7.36257 | 3938 ft | 191 kts | 213° |
| 2026-04-20 20:47 | 9.13692 | 7.35553 | 3743 ft | 148 kts | 213° |
| 2026-04-20 20:47 | 9.12886 | 7.34978 | 3544 ft | 135 kts | 212° |
| 2026-04-20 20:47 | 9.12148 | 7.34454 | 3375 ft | 129 kts | 212° |
| 2026-04-20 20:48 | 9.11397 | 7.33918 | 3211 ft | 130 kts | 214° |
| 2026-04-20 20:48 | 9.10676 | 7.33416 | 3050 ft | 127 kts | 213° |
| 2026-04-20 20:48 | 9.09966 | 7.32903 | 2926 ft | 125 kts | 213° |
| 2026-04-20 20:48 | 9.09245 | 7.32391 | 2763 ft | 127 kts | 214° |
| 2026-04-20 20:49 | 9.08516 | 7.31876 | 2601 ft | 128 kts | 212° |
| 2026-04-20 20:49 | 9.07771 | 7.31349 | 2438 ft | 130 kts | 213° |
| 2026-04-20 20:49 | 9.07038 | 7.30829 | 2278 ft | 129 kts | 213° |
| 2026-04-20 20:49 | 9.06280 | 7.30290 | 2119 ft | 133 kts | 213° |
| 2026-04-20 20:50 | 9.05528 | 7.29757 | 1961 ft | 136 kts | 213° |
| 2026-04-20 20:50 | 9.04745 | 7.29202 | 1794 ft | 137 kts | 214° |
| 2026-04-20 20:50 | 9.03966 | 7.28648 | 1566 ft | 141 kts | 214° |
| 2026-04-20 20:50 | 9.03165 | 7.28080 | 1368 ft | 140 kts | 214° |
| 2026-04-20 20:51 | 9.02374 | 7.27513 | 1223 ft | 138 kts | 213° |
| 2026-04-20 20:51 | 9.01609 | 7.26977 | 1123 ft | 131 kts | 214° |
| 2026-04-20 20:51 | 9.00958 | 7.26516 | 1109 ft | 96 kts | 216° |
| 2026-04-20 20:51 | 9.00511 | 7.26197 | 1107 ft | 56 kts | 216° |
| 2026-04-20 20:52 | 9.00267 | 7.26032 | 1101 ft | 33 kts | 200° |
| 2026-04-20 20:52 | 9.00094 | 7.26091 | 1101 ft | 21 kts | 77° |
| 2026-04-20 20:52 | 9.00197 | 7.26181 | 1102 ft | 19 kts | 35° |
| 2026-04-20 20:52 | 9.00302 | 7.26255 | 1103 ft | 17 kts | 35° |
| 2026-04-20 20:53 | 9.00396 | 7.26322 | 1104 ft | 16 kts | 35° |
| 2026-04-20 20:53 | 9.00491 | 7.26389 | 1104 ft | 16 kts | 35° |
| 2026-04-20 20:53 | 9.00580 | 7.26452 | 1105 ft | 15 kts | 35° |
| 2026-04-20 20:53 | 9.00655 | 7.26504 | 1111 ft | 11 kts | 34° |
| 2026-04-20 20:54 | 9.00720 | 7.26549 | 1113 ft | 12 kts | 34° |
| 2026-04-20 20:54 | 9.00802 | 7.26609 | 1115 ft | 16 kts | 35° |
| 2026-04-20 20:54 | 9.00904 | 7.26679 | 1116 ft | 20 kts | 34° |
| 2026-04-20 20:54 | 9.01032 | 7.26770 | 1114 ft | 23 kts | 34° |
| 2026-04-20 20:55 | 9.01148 | 7.26862 | 1118 ft | 20 kts | 49° |
| 2026-04-20 20:55 | 9.01187 | 7.26984 | 1121 ft | 18 kts | 82° |
| 2026-04-20 20:55 | 9.01170 | 7.27081 | 1115 ft | 3 kts | 64° |
| 2026-04-20 20:55 | 9.01177 | 7.27086 | 1116 ft | 3 kts | 37° |
| 2026-04-20 20:56 | 9.01186 | 7.27093 | 1119 ft | 0 kts | 37° |